Time;durP1;ratioP1;P1;durP2;ratioP2;P2;SDS_P1;SDS_P2;PMS_P1;PMS_P2;Temp;Humidity;BMP_temperature;BMP_pressure;BME280_temperature;BME280_humidity;BME280_pressure;Samples;Min_cycle;Max_cycle;Signal;HPM_P1;HPM_P2
2023/08/09 00:00:46;;;;;;;;;;;16.10;99.90;;;;;;4834905;29;19912;-93
2023/08/09 00:03:34;;;;;;;;;;;16.10;99.90;;;;;;4814870;29;19960;-93
2023/08/09 00:06:15;;;;;;;;;;;16.10;99.90;;;;;;4853325;29;19923;-93
2023/08/09 00:08:42;;;;;;;;;;;16.10;99.90;;;;;;4869046;29;20026;-93
2023/08/09 00:11:26;;;;;;;;;;;16.00;99.90;;;;;;4905958;29;20436;-93
2023/08/09 00:13:54;;;;;;;;;;;16.00;99.90;;;;;;4956275;28;19914;-94
2023/08/09 00:19:25;;;;;;;;;;;16.00;99.90;;;;;;4975937;28;19953;-93
2023/08/09 00:21:54;;;;;;;;;;;16.00;99.90;;;;;;4975331;28;19910;-92
2023/08/09 00:24:32;;;;;;;;;;;16.00;99.90;;;;;;4976213;28;20279;-93
2023/08/09 00:27:09;;;;;;;;;;;16.00;99.90;;;;;;4984963;28;19917;-92
2023/08/09 00:39:03;;;;;;;;;;;15.90;99.90;;;;;;4956343;29;19981;-93
2023/08/09 00:41:53;;;;;;;;;;;15.90;99.90;;;;;;4940346;29;19911;-94
2023/08/09 00:44:49;;;;;;;;;;;15.90;99.90;;;;;;4940211;29;19910;-93
2023/08/09 00:47:36;;;;;;;;;;;15.90;99.90;;;;;;4956596;29;19914;-92
2023/08/09 00:50:38;;;;;;;;;;;15.80;99.90;;;;;;4972506;28;20324;-94
2023/08/09 00:53:13;;;;;;;;;;;15.80;99.90;;;;;;5017993;28;19916;-92
2023/08/09 00:55:46;;;;;;;;;;;15.80;99.90;;;;;;5018617;28;19909;-93
2023/08/09 00:58:49;;;;;;;;;;;15.80;99.90;;;;;;5017891;28;20004;-91
2023/08/09 01:01:34;;;;;;;;;;;15.80;99.90;;;;;;4994336;28;20318;-94
2023/08/09 01:04:26;;;;;;;;;;;15.80;99.90;;;;;;4978935;28;19910;-94
2023/08/09 01:07:23;;;;;;;;;;;15.70;99.90;;;;;;4977765;28;19964;-92
2023/08/09 01:13:22;;;;;;;;;;;15.70;99.90;;;;;;4917952;29;19954;-93
2023/08/09 01:25:16;;;;;;;;;;;;;;;;;;;;;
2023/08/09 01:31:20;;;;;;;;;;;15.60;99.90;;;;;;4843013;29;19913;-93
2023/08/09 02:08:14;;;;;;;;;;;15.60;99.90;;;;;;4838931;29;19931;-93
2023/08/09 02:14:16;;;;;;;;;;;15.60;99.90;;;;;;4852072;29;20497;-92
2023/08/09 02:23:06;;;;;;;;;;;15.70;99.90;;;;;;4870691;29;19919;-92
2023/08/09 02:50:43;;;;;;;;;;;;;;;;;;;;;
2023/08/09 03:03:08;;;;;;;;;;;;;;;;;;;;;
2023/08/09 03:09:06;;;;;;;;;;;15.70;99.90;;;;;;4966725;29;19921;-92
2023/08/09 03:34:20;;;;;;;;;;;;;;;;;;;;;
2023/08/09 03:37:13;;;;;;;;;;;15.60;99.90;;;;;;4919824;29;19917;-91
2023/08/09 03:39:45;;;;;;;;;;;15.70;99.90;;;;;;4919330;29;19911;-91
2023/08/09 03:45:28;;;;;;;;;;;15.70;99.90;;;;;;4900010;29;19918;-92
2023/08/09 03:48:11;;;;;;;;;;;15.70;99.90;;;;;;4900440;29;19923;-92
2023/08/09 03:54:02;;;;;;;;;;;15.70;99.90;;;;;;4899653;29;19921;-92
2023/08/09 03:56:43;;;;;;;;;;;15.70;99.90;;;;;;4938288;29;19915;-93
2023/08/09 04:08:57;;;;;;;;;;;15.60;99.90;;;;;;4918626;29;20437;-93
2023/08/09 04:21:35;;;;;;;;;;;15.60;99.90;;;;;;4976910;28;19921;-92
2023/08/09 04:42:40;;;;;;;;;;;15.50;99.90;;;;;;4900165;29;19919;-93
2023/08/09 04:48:05;;;;;;;;;;;15.50;99.90;;;;;;5023192;28;19917;-93
2023/08/09 04:53:22;;;;;;;;;;;15.50;99.90;;;;;;5021376;28;20453;-92
2023/08/09 04:56:14;;;;;;;;;;;15.50;99.90;;;;;;5018763;28;19910;-94
2023/08/09 04:59:00;;;;;;;;;;;15.50;99.90;;;;;;5003759;28;20346;-94
2023/08/09 05:01:48;;;;;;;;;;;15.50;99.90;;;;;;5003067;28;19917;-95
2023/08/09 05:26:44;;;;;;;;;;;15.70;99.90;;;;;;4934633;29;19926;-93
2023/08/09 05:29:13;;;;;;;;;;;15.60;99.90;;;;;;4938279;29;19915;-94
2023/08/09 05:35:14;;;;;;;;;;;15.60;99.90;;;;;;4890072;29;19956;-92
2023/08/09 05:46:48;;;;;;;;;;;15.60;99.90;;;;;;4960433;28;19949;-93
2023/08/09 05:49:20;;;;;;;;;;;15.70;99.90;;;;;;4943368;29;20277;-92
2023/08/09 06:01:12;;;;;;;;;;;15.70;99.90;;;;;;4996631;28;19976;-92
2023/08/09 06:04:01;;;;;;;;;;;;;;;;;;;;;
2023/08/09 06:06:51;;;;;;;;;;;15.70;99.90;;;;;;4993163;28;19910;-93
2023/08/09 06:09:17;;;;;;;;;;;15.70;99.90;;;;;;4983334;28;19910;-93
2023/08/09 06:11:42;;;;;;;;;;;15.70;99.90;;;;;;4982868;28;19918;-94
2023/08/09 06:17:17;;;;;;;;;;;15.70;99.90;;;;;;4999236;28;20056;-93
2023/08/09 06:22:50;;;;;;;;;;;15.70;99.90;;;;;;4999444;28;20357;-94
2023/08/09 06:28:19;;;;;;;;;;;15.80;99.90;;;;;;4944116;29;19950;-93
2023/08/09 06:34:02;;;;;;;;;;;15.80;99.90;;;;;;4975156;28;19937;-93
2023/08/09 06:39:38;;;;;;;;;;;15.80;99.90;;;;;;4996189;28;20025;-93
2023/08/09 06:48:23;;;;;;;;;;;15.80;99.90;;;;;;4937429;29;19955;-92
2023/08/09 06:50:50;;;;;;;;;;;15.80;99.90;;;;;;4921423;29;19900;-92
2023/08/09 06:56:55;;;;;;;;;;;15.80;99.90;;;;;;4979712;28;19957;-92
2023/08/09 07:14:57;;;;;;;;;;;15.80;99.90;;;;;;4980038;28;20009;-93
2023/08/09 07:20:26;;;;;;;;;;;15.80;99.90;;;;;;4979068;28;19968;-94
2023/08/09 07:25:58;;;;;;;;;;;15.80;99.90;;;;;;5040675;28;19963;-92
2023/08/09 07:34:25;;;;;;;;;;;15.90;99.90;;;;;;5038999;28;19916;-94
2023/08/09 07:36:51;;;;;;;;;;;15.90;99.90;;;;;;5021246;28;19914;-95
2023/08/09 07:39:17;;;;;;;;;;;15.90;99.90;;;;;;5043933;28;19916;-95
2023/08/09 07:41:48;;;;;;;;;;;15.90;99.90;;;;;;5040514;28;19917;-94
2023/08/09 07:44:17;;;;;;;;;;;16.00;99.90;;;;;;5039229;28;19909;-95
2023/08/09 07:49:28;;;;;;;;;;;16.00;99.90;;;;;;5041280;28;20354;-94
2023/08/09 07:52:02;;;;;;;;;;;16.10;99.90;;;;;;5024085;28;19955;-94
2023/08/09 07:54:37;;;;;;;;;;;16.10;99.90;;;;;;5040902;28;19909;-94
2023/08/09 07:57:05;;;;;;;;;;;16.10;99.90;;;;;;5039550;28;19913;-96
2023/08/09 08:11:41;;;;;;;;;;;;;;;;;;;;;
2023/08/09 08:14:08;;;;;;;;;;;16.20;99.90;;;;;;5024345;28;20004;-96
2023/08/09 08:16:33;;;;;;;;;;;16.30;99.90;;;;;;5018656;28;19912;-94
2023/08/09 08:19:11;;;;;;;;;;;16.30;99.90;;;;;;5208383;22;19927;-95
2023/08/09 08:24:39;;;;;;;;;;;16.40;99.90;;;;;;5280405;22;20343;-94
2023/08/09 08:27:08;;;;;;;;;;;16.40;99.90;;;;;;5018756;28;19921;-94
2023/08/09 08:29:33;;;;;;;;;;;16.50;99.90;;;;;;5036135;28;20011;-91
2023/08/09 08:32:07;;;;;;;;;;;16.60;99.90;;;;;;5015944;28;19976;-95
2023/08/09 08:48:02;;;;;;;;;;;16.80;99.90;;;;;;4977626;28;19937;-93
2023/08/09 09:00:01;;;;;;;;;;;17.10;99.90;;;;;;4992390;28;19953;-95
2023/08/09 09:02:38;;;;;;;;;;;17.10;99.90;;;;;;5025140;28;20015;-94
2023/08/09 09:05:13;;;;;;;;;;;17.20;99.90;;;;;;5054691;28;19948;-93
2023/08/09 09:07:40;;;;;;;;;;;17.20;99.90;;;;;;5043493;28;19913;-92
2023/08/09 09:10:20;;;;;;;;;;;17.30;99.90;;;;;;5042149;28;19913;-94
2023/08/09 09:12:49;;;;;;;;;;;17.30;99.90;;;;;;5019383;28;19966;-94
2023/08/09 09:15:15;;;;;;;;;;;17.40;99.90;;;;;;5040639;28;19916;-92
2023/08/09 09:17:46;;;;;;;;;;;17.30;99.90;;;;;;5041762;28;19909;-93
2023/08/09 09:20:45;;;;;;;;;;;17.40;99.90;;;;;;5040222;28;19928;-92
2023/08/09 09:30:09;;;;;;;;;;;;;;;;;;;;;
2023/08/09 10:02:21;;;;;;;;;;;;;;;;;;;;;
2023/08/09 10:05:10;;;;;;;;;;;;;;;;;;;;;
2023/08/09 10:11:32;;;;;;;;;;;17.70;99.90;;;;;;4969907;28;20310;-93
2023/08/09 10:17:51;;;;;;;;;;;17.70;99.90;;;;;;4979049;28;19953;-93
2023/08/09 10:23:36;;;;;;;;;;;17.70;99.90;;;;;;4979440;28;20010;-92
2023/08/09 10:29:30;;;;;;;;;;;17.70;99.90;;;;;;4979096;28;19921;-93
2023/08/09 10:32:05;;;;;;;;;;;17.70;99.90;;;;;;4962706;28;19918;-94
2023/08/09 10:34:48;;;;;;;;;;;17.70;99.90;;;;;;4975268;28;19999;-92
2023/08/09 10:37:25;;;;;;;;;;;17.70;99.90;;;;;;5021140;28;19953;-93
2023/08/09 10:43:12;;;;;;;;;;;17.80;99.90;;;;;;5038382;28;19909;-91
2023/08/09 10:45:38;;;;;;;;;;;17.80;99.90;;;;;;5008682;28;19913;-93
2023/08/09 10:51:22;;;;;;;;;;;17.80;99.90;;;;;;5045705;28;20289;-93
2023/08/09 10:53:58;;;;;;;;;;;17.80;99.90;;;;;;5049163;28;19909;-93
2023/08/09 10:56:30;;;;;;;;;;;17.90;99.90;;;;;;5048604;28;20342;-93
2023/08/09 10:59:05;;;;;;;;;;;17.90;99.90;;;;;;5048017;28;19909;-93
2023/08/09 11:01:31;;;;;;;;;;;18.00;99.90;;;;;;5044232;28;19967;-93
2023/08/09 11:03:58;;;;;;;;;;;18.00;99.90;;;;;;5063590;28;19897;-95
2023/08/09 11:06:34;;;;;;;;;;;18.10;99.90;;;;;;5060935;28;19913;-94
2023/08/09 11:09:19;;;;;;;;;;;;;;;;;;;;;
2023/08/09 11:11:56;;;;;;;;;;;18.20;99.90;;;;;;5080115;28;19903;-94
2023/08/09 11:14:32;;;;;;;;;;;18.30;99.90;;;;;;5063412;28;20011;-94
2023/08/09 11:17:00;;;;;;;;;;;18.30;99.90;;;;;;5062951;28;19897;-93
2023/08/09 11:19:27;;;;;;;;;;;18.40;99.90;;;;;;5034562;28;19917;-94
2023/08/09 11:21:54;;;;;;;;;;;18.40;99.90;;;;;;5041066;28;19908;-94
2023/08/09 11:24:21;;;;;;;;;;;18.40;99.90;;;;;;5040700;28;19908;-94
2023/08/09 11:26:55;;;;;;;;;;;18.40;99.90;;;;;;5040198;28;19912;-93
2023/08/09 11:29:21;;;;;;;;;;;18.40;99.90;;;;;;5040958;28;19908;-93
2023/08/09 11:31:53;;;;;;;;;;;18.40;99.90;;;;;;5040558;28;19909;-94
2023/08/09 11:34:24;;;;;;;;;;;18.50;99.90;;;;;;5040646;28;20262;-95
2023/08/09 11:36:52;;;;;;;;;;;18.50;99.90;;;;;;5024006;28;19912;-93
2023/08/09 11:39:26;;;;;;;;;;;18.60;99.90;;;;;;5041102;28;19999;-92
2023/08/09 11:41:58;;;;;;;;;;;18.60;99.90;;;;;;5039552;28;20003;-94
2023/08/09 11:44:29;;;;;;;;;;;18.60;99.90;;;;;;5040317;28;19916;-93
2023/08/09 11:46:56;;;;;;;;;;;18.70;99.90;;;;;;5023438;28;19917;-94
2023/08/09 11:49:32;;;;;;;;;;;18.70;99.90;;;;;;5039985;28;19913;-93
2023/08/09 11:52:22;;;;;;;;;;;18.80;99.90;;;;;;5039411;28;19916;-93
2023/08/09 11:54:50;;;;;;;;;;;18.90;99.90;;;;;;5025014;28;19958;-94
2023/08/09 11:57:15;;;;;;;;;;;19.10;99.90;;;;;;5041308;28;20383;-93
2023/08/09 11:59:49;;;;;;;;;;;19.10;99.90;;;;;;5024132;28;19913;-94
2023/08/09 12:02:19;;;;;;;;;;;19.20;99.90;;;;;;5042896;28;20003;-94
2023/08/09 12:04:45;;;;;;;;;;;19.20;99.90;;;;;;5040499;28;19909;-94
2023/08/09 12:10:23;;;;;;;;;;;19.50;99.90;;;;;;5024908;28;19909;-92
2023/08/09 12:13:06;;;;;;;;;;;19.60;99.90;;;;;;5023374;28;19912;-92
2023/08/09 12:15:56;;;;;;;;;;;19.70;99.90;;;;;;5024842;28;19921;-93
2023/08/09 12:21:31;;;;;;;;;;;19.90;99.90;;;;;;5056887;28;19916;-92
2023/08/09 12:24:07;;;;;;;;;;;20.00;99.90;;;;;;5022922;28;19913;-94
2023/08/09 12:26:54;;;;;;;;;;;20.10;99.90;;;;;;5048594;28;20277;-93
2023/08/09 12:29:29;;;;;;;;;;;20.20;99.90;;;;;;5022567;28;19913;-92
2023/08/09 12:32:03;;;;;;;;;;;20.20;99.90;;;;;;5039320;28;19909;-93
2023/08/09 12:34:29;;;;;;;;;;;20.30;99.90;;;;;;5038964;28;19909;-92
2023/08/09 12:36:55;;;;;;;;;;;20.40;99.90;;;;;;5038814;28;19909;-93
2023/08/09 12:39:29;;;;;;;;;;;20.30;99.90;;;;;;5040512;28;19909;-93
2023/08/09 12:41:55;;;;;;;;;;;20.40;99.90;;;;;;5023958;28;19913;-93
2023/08/09 12:44:21;;;;;;;;;;;20.30;99.90;;;;;;5038464;28;19915;-93
2023/08/09 12:46:47;;;;;;;;;;;20.30;99.90;;;;;;5038549;28;19909;-93
2023/08/09 12:49:13;;;;;;;;;;;20.30;99.90;;;;;;5039947;28;19935;-93
2023/08/09 12:55:00;;;;;;;;;;;20.40;99.90;;;;;;5056252;28;19919;-93
2023/08/09 12:57:26;;;;;;;;;;;20.50;99.90;;;;;;5038285;28;19909;-93
2023/08/09 12:59:51;;;;;;;;;;;20.50;99.90;;;;;;5038398;28;19920;-91
2023/08/09 13:02:17;;;;;;;;;;;20.50;99.90;;;;;;5021977;28;20011;-92
2023/08/09 13:04:43;;;;;;;;;;;20.60;99.90;;;;;;5037981;28;19909;-91
2023/08/09 13:07:08;;;;;;;;;;;20.60;99.90;;;;;;5021505;28;20066;-92
2023/08/09 13:09:37;;;;;;;;;;;20.70;99.90;;;;;;5017666;28;19913;-92
2023/08/09 13:12:13;;;;;;;;;;;20.80;99.90;;;;;;5033919;28;20003;-92
2023/08/09 13:14:38;;;;;;;;;;;20.80;99.90;;;;;;5037790;28;19909;-91
2023/08/09 13:17:13;;;;;;;;;;;20.90;99.90;;;;;;5022747;28;19963;-93
2023/08/09 13:19:39;;;;;;;;;;;21.00;99.90;;;;;;5022103;28;19948;-93
2023/08/09 13:22:05;;;;;;;;;;;21.10;99.90;;;;;;5038569;28;19909;-93
2023/08/09 13:24:31;;;;;;;;;;;21.10;99.90;;;;;;5038480;28;19909;-93
2023/08/09 13:27:09;;;;;;;;;;;21.10;99.90;;;;;;5040096;28;20376;-93
2023/08/09 13:29:38;;;;;;;;;;;21.20;99.90;;;;;;5042100;28;19999;-92
2023/08/09 13:41:03;;;;;;;;;;;21.40;99.90;;;;;;5054778;28;19916;-93
2023/08/09 13:43:40;;;;;;;;;;;21.50;99.90;;;;;;5023087;28;20293;-96
2023/08/09 13:46:14;;;;;;;;;;;21.50;99.90;;;;;;5021696;28;19913;-96
2023/08/09 13:48:42;;;;;;;;;;;21.60;99.90;;;;;;5024089;28;20011;-94
2023/08/09 13:51:08;;;;;;;;;;;21.60;99.90;;;;;;5033656;28;20003;-94
2023/08/09 13:54:05;;;;;;;;;;;;;;;;;;;;;
2023/08/09 14:02:45;;;;;;;;;;;21.80;99.90;;;;;;4995400;28;19978;-95
2023/08/09 14:08:16;;;;;;;;;;;21.90;99.90;;;;;;5055267;28;19921;-95
2023/08/09 14:10:50;;;;;;;;;;;21.90;99.90;;;;;;5023531;28;19917;-95
2023/08/09 14:13:15;;;;;;;;;;;21.90;99.90;;;;;;5021751;28;20366;-95
2023/08/09 14:15:57;;;;;;;;;;;21.90;99.90;;;;;;5036712;28;19982;-95
2023/08/09 14:18:49;;;;;;;;;;;22.00;99.90;;;;;;5038810;28;20403;-95
2023/08/09 14:21:20;;;;;;;;;;;22.00;99.90;;;;;;5035048;28;20008;-95
2023/08/09 14:23:49;;;;;;;;;;;22.00;99.90;;;;;;5039360;28;19909;-96
2023/08/09 14:26:14;;;;;;;;;;;22.00;99.90;;;;;;5023762;28;19916;-96
2023/08/09 14:28:41;;;;;;;;;;;22.10;99.90;;;;;;5040786;28;19913;-96
2023/08/09 14:31:19;;;;;;;;;;;22.10;99.90;;;;;;5043062;28;19909;-95
2023/08/09 14:33:49;;;;;;;;;;;22.10;99.90;;;;;;5027976;28;19913;-96
2023/08/09 14:36:48;;;;;;;;;;;22.10;99.90;;;;;;5042586;28;19909;-96
2023/08/09 14:42:34;;;;;;;;;;;;;;;;;;;;;
2023/08/09 14:45:00;;;;;;;;;;;22.10;99.90;;;;;;5003840;28;19941;-95
2023/08/09 14:47:32;;;;;;;;;;;22.20;99.90;;;;;;5064523;28;19927;-96
2023/08/09 14:50:00;;;;;;;;;;;22.10;99.90;;;;;;5040212;28;19909;-96
2023/08/09 14:52:35;;;;;;;;;;;22.20;99.90;;;;;;5040056;28;19924;-96
2023/08/09 14:55:01;;;;;;;;;;;22.20;99.90;;;;;;5040768;28;19962;-94
2023/08/09 14:57:45;;;;;;;;;;;;;;;;;;;;;
2023/08/09 15:00:25;;;;;;;;;;;22.20;99.90;;;;;;5041024;28;19919;-96
2023/08/09 15:08:47;;;;;;;;;;;22.20;99.90;;;;;;5058745;28;19924;-95
2023/08/09 15:11:27;;;;;;;;;;;22.20;99.90;;;;;;5024225;28;19963;-96
2023/08/09 15:14:01;;;;;;;;;;;22.20;99.90;;;;;;5057819;28;19909;-96
2023/08/09 15:16:37;;;;;;;;;;;22.20;99.90;;;;;;5024929;28;20049;-96
2023/08/09 15:19:08;;;;;;;;;;;22.20;99.90;;;;;;5041593;28;19980;-96
2023/08/09 15:21:34;;;;;;;;;;;22.20;99.90;;;;;;5040946;28;20354;-96
2023/08/09 15:23:59;;;;;;;;;;;22.20;99.90;;;;;;5023712;28;20008;-95
2023/08/09 15:26:30;;;;;;;;;;;22.30;99.90;;;;;;5040343;28;19916;-95
2023/08/09 15:32:00;;;;;;;;;;;22.30;99.90;;;;;;5057589;28;19917;-95
2023/08/09 15:34:26;;;;;;;;;;;22.40;99.90;;;;;;5039823;28;20377;-94
2023/08/09 15:46:13;;;;;;;;;;;22.50;99.90;;;;;;5027748;28;19929;-95
2023/08/09 15:48:44;;;;;;;;;;;22.50;99.90;;;;;;5024955;28;19936;-95
2023/08/09 15:51:12;;;;;;;;;;;22.50;99.90;;;;;;5019734;28;19920;-96
2023/08/09 15:53:46;;;;;;;;;;;22.50;99.90;;;;;;5017739;28;19909;-94
2023/08/09 15:56:23;;;;;;;;;;;22.60;99.90;;;;;;5017924;28;19913;-94
2023/08/09 15:58:54;;;;;;;;;;;22.50;99.90;;;;;;5015655;28;19952;-94
2023/08/09 16:01:20;;;;;;;;;;;22.50;99.90;;;;;;5003326;28;19913;-95
2023/08/09 16:03:49;;;;;;;;;;;22.60;99.90;;;;;;5020625;28;19910;-95
2023/08/09 16:06:36;;;;;;;;;;;22.50;99.90;;;;;;5021446;28;19916;-96
2023/08/09 16:09:26;;;;;;;;;;;22.50;99.90;;;;;;5021225;28;19963;-96
2023/08/09 16:11:52;;;;;;;;;;;22.50;99.90;;;;;;5017147;28;19909;-95
2023/08/09 16:14:21;;;;;;;;;;;22.50;99.90;;;;;;5018876;28;19909;-95
2023/08/09 16:16:49;;;;;;;;;;;22.50;99.90;;;;;;5021732;28;19909;-96
2023/08/09 16:19:24;;;;;;;;;;;22.50;99.90;;;;;;5024467;28;20235;-96
2023/08/09 16:25:29;;;;;;;;;;;22.50;99.90;;;;;;5036812;28;19995;-95
2023/08/09 16:28:05;;;;;;;;;;;22.50;99.90;;;;;;5019808;28;19960;-95
2023/08/09 16:30:31;;;;;;;;;;;22.50;99.90;;;;;;5037478;28;19909;-96
2023/08/09 16:33:03;;;;;;;;;;;22.40;99.90;;;;;;5018109;28;19910;-95
2023/08/09 16:35:40;;;;;;;;;;;22.40;99.90;;;;;;5020053;28;19909;-94
2023/08/09 16:38:06;;;;;;;;;;;22.40;99.90;;;;;;5004971;28;19968;-95
2023/08/09 16:40:33;;;;;;;;;;;22.30;99.90;;;;;;5019736;28;19942;-94
2023/08/09 16:43:20;;;;;;;;;;;22.30;99.90;;;;;;5019673;28;19909;-93
2023/08/09 16:48:56;;;;;;;;;;;22.30;99.90;;;;;;4939504;29;20379;-94
2023/08/09 16:51:32;;;;;;;;;;;22.30;99.90;;;;;;4908681;29;19971;-92
2023/08/09 17:00:14;;;;;;;;;;;22.30;99.90;;;;;;4882484;29;19919;-96
2023/08/09 17:02:40;;;;;;;;;;;22.30;99.90;;;;;;4932907;28;20393;-95
2023/08/09 17:05:08;;;;;;;;;;;22.20;99.90;;;;;;5000456;28;19910;-95
2023/08/09 17:07:44;;;;;;;;;;;;;;;;;;;;;
2023/08/09 17:10:17;;;;;;;;;;;22.10;99.90;;;;;;5016181;28;20008;-93
2023/08/09 17:12:46;;;;;;;;;;;22.10;99.90;;;;;;4998281;28;19910;-93
2023/08/09 17:18:35;;;;;;;;;;;22.00;99.90;;;;;;5038068;28;20276;-92
2023/08/09 17:21:13;;;;;;;;;;;;;;;;;;;;;
2023/08/09 17:23:44;;;;;;;;;;;21.90;99.90;;;;;;5016048;28;20015;-92
2023/08/09 17:26:20;;;;;;;;;;;21.80;99.90;;;;;;5018776;28;20417;-93
2023/08/09 17:28:55;;;;;;;;;;;21.80;99.90;;;;;;5019149;28;19916;-94
2023/08/09 17:31:39;;;;;;;;;;;21.70;99.90;;;;;;5022463;28;19976;-94
2023/08/09 17:37:13;;;;;;;;;;;21.50;99.90;;;;;;5014343;28;19917;-92
2023/08/09 17:39:49;;;;;;;;;;;21.50;99.90;;;;;;4997626;28;19951;-93
2023/08/09 17:42:30;;;;;;;;;;;21.40;99.90;;;;;;4998457;28;20305;-93
2023/08/09 17:45:07;;;;;;;;;;;21.30;99.90;;;;;;4999023;28;19909;-93
2023/08/09 17:47:53;;;;;;;;;;;21.30;99.90;;;;;;4982547;28;19933;-93
2023/08/09 17:50:25;;;;;;;;;;;21.30;99.90;;;;;;4975647;28;19953;-94
2023/08/09 17:56:18;;;;;;;;;;;21.20;99.90;;;;;;4975941;28;19916;-93
2023/08/09 17:58:50;;;;;;;;;;;21.10;99.90;;;;;;4975691;28;20011;-94
2023/08/09 18:01:15;;;;;;;;;;;21.10;99.90;;;;;;4975568;28;19966;-93
2023/08/09 18:03:41;;;;;;;;;;;21.00;99.90;;;;;;4977120;28;19914;-92
2023/08/09 18:06:12;;;;;;;;;;;21.00;99.90;;;;;;4996826;28;20370;-93
2023/08/09 18:18:11;;;;;;;;;;;20.80;99.90;;;;;;4999315;28;20049;-93
2023/08/09 18:20:49;;;;;;;;;;;20.80;99.90;;;;;;4990885;28;19916;-93
2023/08/09 18:23:17;;;;;;;;;;;20.70;99.90;;;;;;5005660;28;19913;-92
2023/08/09 18:25:48;;;;;;;;;;;20.70;99.90;;;;;;5021822;28;19913;-93
2023/08/09 18:28:16;;;;;;;;;;;20.70;99.90;;;;;;5005531;28;20343;-93
2023/08/09 18:33:57;;;;;;;;;;;20.60;99.90;;;;;;5038850;28;19976;-92
2023/08/09 18:36:25;;;;;;;;;;;20.60;99.90;;;;;;5005178;28;19917;-93
2023/08/09 18:38:51;;;;;;;;;;;20.50;99.90;;;;;;5022024;28;20309;-93
2023/08/09 18:41:25;;;;;;;;;;;20.50;99.90;;;;;;5004414;28;19928;-92
2023/08/09 18:44:08;;;;;;;;;;;20.50;99.90;;;;;;5020945;28;19909;-91
2023/08/09 18:46:34;;;;;;;;;;;20.50;99.90;;;;;;5004283;28;19914;-92
2023/08/09 18:52:13;;;;;;;;;;;20.40;99.90;;;;;;5030236;28;20015;-92
2023/08/09 18:54:48;;;;;;;;;;;20.40;99.90;;;;;;5038500;28;19941;-94
2023/08/09 18:57:47;;;;;;;;;;;;;;;;;;;;;
2023/08/09 19:00:13;;;;;;;;;;;20.30;99.90;;;;;;5053057;28;19919;-92
2023/08/09 19:05:56;;;;;;;;;;;20.20;99.90;;;;;;5031487;28;20380;-93
2023/08/09 19:11:27;;;;;;;;;;;20.10;99.90;;;;;;5057103;28;19908;-91
2023/08/09 19:14:01;;;;;;;;;;;20.00;99.90;;;;;;5057150;28;19923;-92
2023/08/09 19:16:53;;;;;;;;;;;20.00;99.90;;;;;;5038797;28;19908;-91
2023/08/09 19:19:18;;;;;;;;;;;20.00;99.90;;;;;;5039449;28;19909;-92
2023/08/09 19:21:52;;;;;;;;;;;19.90;99.90;;;;;;5022938;28;19935;-93
2023/08/09 19:24:18;;;;;;;;;;;19.80;99.90;;;;;;5024997;28;19955;-92
2023/08/09 19:26:43;;;;;;;;;;;19.80;99.90;;;;;;5024612;28;20293;-92
2023/08/09 19:29:09;;;;;;;;;;;19.70;99.90;;;;;;5023327;28;19917;-93
2023/08/09 19:31:34;;;;;;;;;;;19.70;99.90;;;;;;5023643;28;20051;-92
2023/08/09 19:34:00;;;;;;;;;;;19.70;99.90;;;;;;5023746;28;20369;-93
2023/08/09 19:36:26;;;;;;;;;;;19.60;99.90;;;;;;5039659;28;19913;-92
2023/08/09 19:38:51;;;;;;;;;;;19.60;99.90;;;;;;5025052;28;19960;-92
2023/08/09 19:41:17;;;;;;;;;;;19.50;99.90;;;;;;5027084;28;19944;-91
2023/08/09 19:43:42;;;;;;;;;;;19.50;99.90;;;;;;5022673;28;19917;-93
2023/08/09 19:46:08;;;;;;;;;;;19.40;99.90;;;;;;5023060;28;19948;-93
2023/08/09 19:48:33;;;;;;;;;;;19.40;99.90;;;;;;5039074;28;19976;-92
2023/08/09 19:51:00;;;;;;;;;;;19.30;99.90;;;;;;5038685;28;19954;-92
2023/08/09 19:53:25;;;;;;;;;;;19.30;99.90;;;;;;5028730;28;19917;-93
2023/08/09 19:58:54;;;;;;;;;;;19.10;99.90;;;;;;5036925;28;19955;-95
2023/08/09 20:01:20;;;;;;;;;;;19.10;99.90;;;;;;5003439;28;19917;-93
2023/08/09 20:03:46;;;;;;;;;;;19.00;99.90;;;;;;5020207;28;19959;-94
2023/08/09 20:06:12;;;;;;;;;;;18.90;99.90;;;;;;5004795;28;20075;-96
2023/08/09 20:08:41;;;;;;;;;;;18.90;99.90;;;;;;5019800;28;20358;-94
2023/08/09 20:11:12;;;;;;;;;;;18.80;99.90;;;;;;5020648;28;19959;-96
2023/08/09 20:13:38;;;;;;;;;;;18.80;99.90;;;;;;5021711;28;19909;-94
2023/08/09 20:16:07;;;;;;;;;;;18.80;99.90;;;;;;5022220;28;19916;-95
2023/08/09 20:18:33;;;;;;;;;;;18.70;99.90;;;;;;5020925;28;19913;-95
2023/08/09 20:21:00;;;;;;;;;;;18.70;99.90;;;;;;5021120;28;19909;-95
2023/08/09 20:23:26;;;;;;;;;;;18.60;99.90;;;;;;5023214;28;19995;-94
2023/08/09 20:25:52;;;;;;;;;;;18.60;99.90;;;;;;5023537;28;19916;-96
2023/08/09 20:28:17;;;;;;;;;;;18.50;99.90;;;;;;5021460;28;20004;-94
2023/08/09 20:30:57;;;;;;;;;;;18.50;99.90;;;;;;5005350;28;20278;-95
2023/08/09 20:33:43;;;;;;;;;;;18.40;99.90;;;;;;5031136;28;19968;-95
2023/08/09 20:36:09;;;;;;;;;;;18.40;99.90;;;;;;5023807;28;19916;-92
2023/08/09 20:38:40;;;;;;;;;;;18.30;99.90;;;;;;5020384;28;19913;-94
2023/08/09 20:41:10;;;;;;;;;;;18.20;99.90;;;;;;5005327;28;19913;-94
2023/08/09 20:43:39;;;;;;;;;;;18.20;99.90;;;;;;4999108;28;19913;-96
2023/08/09 20:46:08;;;;;;;;;;;18.10;99.90;;;;;;5023701;28;19913;-96
2023/08/09 20:48:36;;;;;;;;;;;18.10;99.90;;;;;;5022680;28;19917;-96
2023/08/09 20:51:05;;;;;;;;;;;18.00;99.90;;;;;;5007952;28;19913;-95
2023/08/09 20:53:42;;;;;;;;;;;18.00;99.90;;;;;;5005451;28;19932;-96
2023/08/09 20:56:13;;;;;;;;;;;18.00;99.90;;;;;;5022316;28;19967;-95
2023/08/09 20:58:44;;;;;;;;;;;17.90;99.90;;;;;;5021745;28;19924;-96
2023/08/09 21:01:12;;;;;;;;;;;17.90;99.90;;;;;;5003366;28;19960;-95
2023/08/09 21:03:41;;;;;;;;;;;17.80;99.90;;;;;;5003090;28;19913;-93
2023/08/09 21:06:06;;;;;;;;;;;17.80;99.90;;;;;;5018338;28;19917;-92
2023/08/09 21:08:32;;;;;;;;;;;17.80;99.90;;;;;;5017826;28;19921;-92
2023/08/09 21:11:03;;;;;;;;;;;17.70;99.90;;;;;;5001616;28;19984;-92
2023/08/09 21:13:32;;;;;;;;;;;17.70;99.90;;;;;;5017457;28;19915;-93
2023/08/09 21:15:57;;;;;;;;;;;17.70;99.90;;;;;;5017665;28;19917;-93
2023/08/09 21:18:23;;;;;;;;;;;17.60;99.90;;;;;;5017827;28;19909;-92
2023/08/09 21:20:51;;;;;;;;;;;17.60;99.90;;;;;;5018537;28;19917;-93
2023/08/09 21:23:23;;;;;;;;;;;17.60;99.90;;;;;;5019947;28;19909;-92
2023/08/09 21:25:49;;;;;;;;;;;17.60;99.90;;;;;;5021283;28;19909;-92
2023/08/09 21:28:14;;;;;;;;;;;17.50;99.90;;;;;;5023099;28;20420;-93
2023/08/09 21:30:40;;;;;;;;;;;17.40;99.90;;;;;;5008081;28;19968;-94
2023/08/09 21:33:10;;;;;;;;;;;17.30;99.90;;;;;;5007215;28;19925;-93
2023/08/09 21:35:36;;;;;;;;;;;17.30;99.90;;;;;;5020599;28;20015;-93
2023/08/09 21:38:02;;;;;;;;;;;17.30;99.90;;;;;;5017368;28;19992;-92
2023/08/09 21:40:30;;;;;;;;;;;17.20;99.90;;;;;;5021667;28;19917;-93
2023/08/09 21:42:56;;;;;;;;;;;17.20;99.90;;;;;;5022734;28;19910;-93
2023/08/09 21:45:21;;;;;;;;;;;17.20;99.90;;;;;;5027207;28;19984;-93
2023/08/09 21:47:47;;;;;;;;;;;17.20;99.90;;;;;;5025695;28;19913;-94
2023/08/09 21:50:12;;;;;;;;;;;17.10;99.90;;;;;;5027058;28;20000;-93
2023/08/09 21:52:38;;;;;;;;;;;17.10;99.90;;;;;;5032197;28;19916;-94
2023/08/09 21:55:04;;;;;;;;;;;17.10;99.90;;;;;;5050668;28;19959;-93
2023/08/09 21:57:32;;;;;;;;;;;17.10;99.90;;;;;;5031962;28;19921;-93
2023/08/09 21:59:58;;;;;;;;;;;17.00;99.90;;;;;;5025851;28;19913;-93
2023/08/09 22:02:23;;;;;;;;;;;17.00;99.90;;;;;;5042431;28;20413;-94
2023/08/09 22:04:52;;;;;;;;;;;17.00;99.90;;;;;;5050483;28;19909;-93
2023/08/09 22:07:18;;;;;;;;;;;17.00;99.90;;;;;;5051099;28;19940;-92
2023/08/09 22:09:44;;;;;;;;;;;17.00;99.90;;;;;;5047235;28;19916;-92
2023/08/09 22:12:09;;;;;;;;;;;16.90;99.90;;;;;;5021104;28;19941;-93
2023/08/09 22:14:35;;;;;;;;;;;17.00;99.90;;;;;;5033981;28;19909;-94
2023/08/09 22:17:09;;;;;;;;;;;16.90;99.90;;;;;;5046368;28;19909;-93
2023/08/09 22:19:34;;;;;;;;;;;16.90;99.90;;;;;;5047043;28;19940;-93
2023/08/09 22:22:02;;;;;;;;;;;16.90;99.90;;;;;;5048343;28;19909;-93
2023/08/09 22:24:28;;;;;;;;;;;16.80;99.90;;;;;;5048739;28;19918;-93
2023/08/09 22:26:54;;;;;;;;;;;16.80;99.90;;;;;;5036566;28;19917;-93
2023/08/09 22:29:19;;;;;;;;;;;16.80;99.90;;;;;;5044533;28;19913;-92
2023/08/09 22:31:45;;;;;;;;;;;16.80;99.90;;;;;;5045323;28;19909;-92
2023/08/09 22:34:12;;;;;;;;;;;16.70;99.90;;;;;;5046095;28;19916;-92
2023/08/09 22:36:38;;;;;;;;;;;16.70;99.90;;;;;;5046356;28;19916;-93
2023/08/09 22:39:03;;;;;;;;;;;16.70;99.90;;;;;;5022252;28;19913;-92
2023/08/09 22:41:29;;;;;;;;;;;16.60;99.90;;;;;;5037024;28;19909;-93
2023/08/09 22:43:55;;;;;;;;;;;16.60;99.90;;;;;;5044061;28;19960;-92
2023/08/09 22:46:20;;;;;;;;;;;16.60;99.90;;;;;;5042974;28;19909;-92
2023/08/09 22:48:46;;;;;;;;;;;16.60;99.90;;;;;;5043762;28;19913;-92
2023/08/09 22:51:12;;;;;;;;;;;16.60;99.90;;;;;;5042335;28;20301;-93
2023/08/09 22:53:37;;;;;;;;;;;16.60;99.90;;;;;;5006005;28;19928;-92
2023/08/09 22:56:03;;;;;;;;;;;16.50;99.90;;;;;;5003577;28;19917;-93